Capanda Airport


Codes: AO-KNP/KNP
Name: Capanda Airport
City: Capanda
Country: Angola
Elevation: 3366 ft.
Wikipedia:

Photos at Capanda Airport


   Photos courtesy of SpottingLog. You can add your own sightings and photos by signing up for a free trial today.



No photos found.

Weather at Capanda Airport


Time (UTC)DescriptionTempratureWindCloud coverageVisibilityPressureHumidity
16-Jun-2024 09:00Overcast Clouds25°C9 mph, SE94%10000m1015hPa20%
16-Jun-2024 12:00Overcast Clouds26°C7 mph, E92%10000m1014hPa17%
16-Jun-2024 15:00Overcast Clouds28°C4 mph, E94%10000m1012hPa14%
16-Jun-2024 18:00Overcast Clouds20°C4 mph, E97%10000m1013hPa22%
16-Jun-2024 21:00Overcast Clouds16°C4 mph, SE98%10000m1015hPa28%
17-Jun-2024 00:00Overcast Clouds13°C4 mph, SE99%10000m1016hPa32%
17-Jun-2024 03:00Overcast Clouds13°C4 mph, SE97%10000m1016hPa32%
17-Jun-2024 06:00Overcast Clouds14°C4 mph, SE98%10000m1018hPa32%
17-Jun-2024 09:00Broken Clouds26°C7 mph, E70%10000m1016hPa16%
17-Jun-2024 12:00Broken Clouds31°C4 mph, NE51%10000m1012hPa11%
17-Jun-2024 15:00Broken Clouds30°C2 mph, NE70%10000m1010hPa11%
17-Jun-2024 18:00Overcast Clouds20°C2 mph, NW85%10000m1014hPa24%
17-Jun-2024 21:00Overcast Clouds15°C0 mph, SE86%10000m1016hPa48%
18-Jun-2024 00:00Overcast Clouds13°C2 mph, S89%10000m1016hPa52%
18-Jun-2024 03:00Overcast Clouds13°C2 mph, S100%10000m1016hPa49%
18-Jun-2024 06:00Overcast Clouds14°C2 mph, SE100%10000m1016hPa42%
18-Jun-2024 09:00Broken Clouds26°C4 mph, E84%10000m1016hPa18%
18-Jun-2024 12:00Broken Clouds32°C4 mph, NE74%10000m1011hPa11%
18-Jun-2024 15:00Broken Clouds31°C2 mph, NE59%10000m1009hPa11%
18-Jun-2024 18:00Scattered Clouds19°C4 mph, NE36%10000m1013hPa43%
18-Jun-2024 21:00Clear Sky15°C2 mph, NE8%10000m1016hPa72%
19-Jun-2024 00:00Clear Sky14°C2 mph, S5%10000m1016hPa78%
19-Jun-2024 03:00Clear Sky12°C2 mph, S4%10000m1015hPa76%
19-Jun-2024 06:00Clear Sky14°C2 mph, SE4%10000m1015hPa62%
19-Jun-2024 09:00Clear Sky27°C4 mph, E0%10000m1015hPa24%
19-Jun-2024 12:00Clear Sky33°C2 mph, NE3%10000m1010hPa12%
19-Jun-2024 15:00Clear Sky32°C4 mph, NW10%10000m1009hPa13%
19-Jun-2024 18:00Clear Sky19°C4 mph, W8%10000m1013hPa56%
19-Jun-2024 21:00Clear Sky16°C2 mph, NE1%10000m1016hPa75%
20-Jun-2024 00:00Clear Sky14°C2 mph, SW1%10000m1015hPa82%
20-Jun-2024 03:00Few Clouds13°C2 mph, S11%10000m1014hPa85%
20-Jun-2024 06:00Few Clouds15°C4 mph, SE12%10000m1015hPa73%
20-Jun-2024 09:00Clear Sky28°C4 mph, E6%10000m1014hPa25%
20-Jun-2024 12:00Clear Sky34°C4 mph, NE4%10000m1010hPa11%
20-Jun-2024 15:00Few Clouds33°C4 mph, NE17%10000m1008hPa11%
20-Jun-2024 18:00Clear Sky20°C2 mph, W9%10000m1012hPa44%
20-Jun-2024 21:00Clear Sky17°C2 mph, SW0%10000m1015hPa66%
21-Jun-2024 00:00Clear Sky15°C2 mph, SW0%10000m1015hPa76%
21-Jun-2024 03:00Clear Sky13°C2 mph, SW0%10000m1015hPa82%
21-Jun-2024 06:00Clear Sky15°C2 mph, E0%10000m1017hPa71%